Terminal Aerodrome Forecast
Issued by NWS

Home | Current Version | Previous Version | Text Only | Print | Product List | Glossary On
Versions: 1 2 3 4 5 6 7 8 9 10 11 12 13 14 15
844
FTUS43 KLSX 112322
TAFUIN
TAF
KUIN 112322Z 1200/1224 32020G30KT P6SM VCSH OVC025
     FM120200 32020G33KT P6SM OVC020
     FM120800 33018G27KT P6SM BKN090
     FM121000 33016G22KT P6SM SCT200
     FM122300 29008KT P6SM SCT200=

USA.gov is the U.S. government's official web portal to all federal, state and local government web resources and services.